Startpagina
METAR-TAF:

METAR-TAF

Vliegvelden :

Paraguaná, Venezuela

breedte: 11-47N, lengte: 070-09W, hoogte: 23 m

METAR: ontbreekt

Tijdstip: 22:40 (02:40 UTC)

Verwachting

Dit bericht is 4 uur en het 40 minuten geleden gemaakt, om 22:00 UTC
Verwachting geldig van 17 om 00 UTC tot 18 om 00 UTC
Wind 12 kt uit het oosten
Zicht 10 km of meer
Verspreide wolken op 1300 ft
Wijzigt naar
van 16 om 00 UTC tot 16 om 04 UTC
Wind 15 kt uit het oosten
Zicht 10 km of meer
Verspreide wolken op 1300 ft
Verspreide wolken op 10000 ft

TAF: SVJC 162200Z 1700/1800 09012KT 9999 SCT013 TX34/18 TN25/08Z BECMG 1600/1604 09015KT 9999 SCT013 SCT100

Waarnemingen en weersverwachtingen van meer dan 4000 vliegvelden (METAR en TAF).

De beschikbare stations zijn de gele en rode punten op de kaart.

Ga met uw muis naar het station om de naam te zien.

Klik dan om waarnemingen en weersverwachtingen te zien.

kaart wijzigen: klik op de groene knoppen met een zwart kruis om in te zoomen, op de groene knop met een streepje om uit te zoomen of op de groene pijlen voor aangrenzende kaarten.


METAR-TAF: